Time,TemperatureF,DewpointF,PressureIn,WindDirection,WindDirectionDegrees,WindSpeedMPH,WindSpeedGustMPH,Humidity,HourlyPrecipIn,Conditions,Clouds,dailyrainin,SoftwareType,DateUTC
2013-02-04 00:03:00,14.9,-12.4,29.83,WSW,247,3.6,3.6,28,0.00,CLR,,0.00,WeatherDisplay:10.37,2013-02-04 05:03:00,
2013-02-04 00:05:00,14.9,-12.4,29.83,West,259,1.0,4.0,28,0.00,CLR,CLR,0.00,WeatherDisplay:10.37,2013-02-04 05:05:00,
2013-02-04 00:07:00,14.9,-12.4,29.83,West,270,1.7,1.7,28,0.00,CLR,,0.00,WeatherDisplay:10.37,2013-02-04 05:07:00,
2013-02-04 00:10:00,14.9,-12.4,29.82,West,265,2.0,2.0,28,0.00,CLR,CLR,0.00,WeatherDisplay:10.37,2013-02-04 05:10:00,
2013-02-04 00:15:00,15.1,-12.2,29.81,West,270,3.0,5.0,28,0.00,CLR,CLR,0.00,WeatherDisplay:10.37,2013-02-04 05:15:00,
2013-02-04 00:20:00,15.3,-12.1,29.80,West,270,4.6,4.6,28,0.00,CLR,,0.00,WeatherDisplay:10.37,2013-02-04 05:20:00,
2013-02-04 00:25:00,11.8,-15.1,29.81,WSW,247,4.6,4.6,28,0.00,CLR,,0.00,WeatherDisplay:10.37,2013-02-04 05:25:00,
2013-02-04 00:30:00,11.8,-15.1,29.81,WSW,247,4.6,4.6,28,0.00,CLR,,0.00,WeatherDisplay:10.37,2013-02-04 05:30:00,
2013-02-04 00:35:00,11.8,-15.1,29.82,SW,225,4.6,4.6,28,0.00,CLR,,0.00,WeatherDisplay:10.37,2013-02-04 05:35:00,
2013-02-04 00:40:00,11.8,-15.1,29.83,WNW,292,4.6,4.6,28,0.00,CLR,,0.00,WeatherDisplay:10.37,2013-02-04 05:40:00,
2013-02-04 00:45:00,12.0,-14.9,29.83,SW,225,4.6,4.6,28,0.00,CLR,,0.00,WeatherDisplay:10.37,2013-02-04 05:45:00,
2013-02-04 00:50:00,12.0,-14.9,29.83,West,270,4.6,4.6,28,0.00,CLR,,0.00,WeatherDisplay:10.37,2013-02-04 05:50:00,
2013-02-04 00:55:00,12.0,-14.9,29.82,West,270,4.6,4.6,28,0.00,CLR,,0.00,WeatherDisplay:10.37,2013-02-04 05:55:00,
2013-02-04 01:00:00,12.0,-14.9,29.81,West,270,4.6,4.6,28,0.00,CLR,,0.00,WeatherDisplay:10.37,2013-02-04 06:00:00,
2013-02-04 01:05:00,12.0,-14.9,29.81,WSW,247,4.6,4.6,28,0.00,CLR,,0.00,WeatherDisplay:10.37,2013-02-04 06:05:00,
2013-02-04 01:10:00,12.0,-14.9,29.82,West,270,2.3,2.3,28,0.00,CLR,,0.00,WeatherDisplay:10.37,2013-02-04 06:10:00,
2013-02-04 01:15:00,12.2,-14.8,29.83,WSW,247,2.3,2.3,28,0.00,CLR,,0.00,WeatherDisplay:10.37,2013-02-04 06:15:00,
2013-02-04 01:20:00,12.2,-14.8,29.83,West,270,2.3,2.3,28,0.00,CLR,,0.00,WeatherDisplay:10.37,2013-02-04 06:20:00,
2013-02-04 01:25:00,12.4,-14.6,29.83,West,270,3.5,3.5,28,0.00,CLR,,0.00,WeatherDisplay:10.37,2013-02-04 06:25:00,
2013-02-04 01:30:00,12.2,-14.8,29.82,SW,225,3.5,3.5,28,0.00,CLR,,0.00,WeatherDisplay:10.37,2013-02-04 06:30:00,
2013-02-04 01:35:00,12.4,-14.6,29.82,West,270,3.5,3.5,28,0.00,CLR,,0.00,WeatherDisplay:10.37,2013-02-04 06:35:00,
2013-02-04 01:40:00,12.4,-14.6,29.83,West,270,3.5,3.5,28,0.00,CLR,,0.00,WeatherDisplay:10.37,2013-02-04 06:40:00,
2013-02-04 01:45:00,12.4,-14.6,29.83,WSW,247,3.5,3.5,28,0.00,CLR,,0.00,WeatherDisplay:10.37,2013-02-04 06:45:00,
2013-02-04 01:50:00,12.4,-14.6,29.83,SW,225,3.5,3.5,28,0.00,CLR,,0.00,WeatherDisplay:10.37,2013-02-04 06:50:00,
2013-02-04 01:55:00,12.4,-14.6,29.84,SW,225,3.5,3.5,28,0.00,CLR,,0.00,WeatherDisplay:10.37,2013-02-04 06:55:00,
2013-02-04 02:00:00,12.6,-14.4,29.83,WNW,292,3.5,3.5,28,0.00,CLR,,0.00,WeatherDisplay:10.37,2013-02-04 07:00:00,
2013-02-04 02:05:00,12.6,-14.4,29.83,WSW,247,3.5,3.5,28,0.00,CLR,,0.00,WeatherDisplay:10.37,2013-02-04 07:05:00,
2013-02-04 02:10:00,12.6,-14.4,29.81,WSW,247,1.7,1.7,28,0.00,CLR,,0.00,WeatherDisplay:10.37,2013-02-04 07:10:00,
2013-02-04 02:15:00,12.6,-14.4,29.82,WSW,247,1.7,1.7,28,0.00,CLR,,0.00,WeatherDisplay:10.37,2013-02-04 07:15:00,
2013-02-04 02:20:00,12.7,-14.3,29.82,West,270,3.5,3.5,28,0.00,CLR,,0.00,WeatherDisplay:10.37,2013-02-04 07:20:00,
2013-02-04 02:25:00,12.7,-14.3,29.83,WSW,247,3.5,3.5,28,0.00,CLR,,0.00,WeatherDisplay:10.37,2013-02-04 07:25:00,
2013-02-04 02:30:00,12.9,-14.1,29.84,West,270,3.5,3.5,28,0.00,CLR,,0.00,WeatherDisplay:10.37,2013-02-04 07:30:00,
2013-02-04 02:35:00,13.1,-14.0,29.84,WSW,247,3.5,3.5,28,0.00,CLR,,0.00,WeatherDisplay:10.37,2013-02-04 07:35:00,
2013-02-04 02:40:00,13.1,-14.0,29.83,West,270,3.5,3.5,28,0.00,CLR,,0.00,WeatherDisplay:10.37,2013-02-04 07:40:00,
2013-02-04 02:45:00,13.1,-14.0,29.82,West,270,3.5,0.0,28,0.00,CLR,,0.00,WeatherDisplay:10.37,2013-02-04 07:45:00,
2013-02-04 02:50:00,13.1,-14.0,29.83,West,270,3.5,0.0,28,0.00,CLR,,0.00,WeatherDisplay:10.37,2013-02-04 07:50:00,
2013-02-04 02:55:00,13.5,-13.7,29.83,West,270,3.5,0.0,28,0.00,CLR,,0.00,WeatherDisplay:10.37,2013-02-04 07:55:00,
2013-02-04 03:00:00,13.5,-13.7,29.85,West,270,3.5,0.0,28,0.00,CLR,,0.00,WeatherDisplay:10.37,2013-02-04 08:00:00,
2013-02-04 03:05:00,13.5,-13.7,29.84,West,270,3.5,0.0,28,0.00,CLR,,0.00,WeatherDisplay:10.37,2013-02-04 08:05:00,
2013-02-04 03:10:00,10.0,-16.7,29.84,West,270,0.0,0.0,28,0.00,CLR,,0.00,WeatherDisplay:10.37,2013-02-04 08:10:00,
2013-02-04 03:15:00,10.0,-16.7,29.84,West,270,0.0,0.0,28,0.00,CLR,,0.00,WeatherDisplay:10.37,2013-02-04 08:15:00,
2013-02-04 03:20:00,13.5,-13.7,29.82,West,270,0.0,0.0,28,0.00,CLR,,0.00,WeatherDisplay:10.37,2013-02-04 08:20:00,
2013-02-04 03:25:00,13.5,-13.7,29.83,West,270,1.3,1.3,28,0.00,CLR,,0.00,WeatherDisplay:10.37,2013-02-04 08:25:00,
2013-02-04 03:30:00,13.5,-13.7,29.81,WSW,247,1.3,1.3,28,0.00,CLR,,0.00,WeatherDisplay:10.37,2013-02-04 08:30:00,
2013-02-04 03:35:00,13.5,-13.7,29.82,WSW,247,1.3,0.0,28,0.00,CLR,,0.00,WeatherDisplay:10.37,2013-02-04 08:35:00,
2013-02-04 03:40:00,13.5,-13.7,29.83,WSW,247,1.3,1.3,28,0.00,CLR,,0.00,WeatherDisplay:10.37,2013-02-04 08:40:00,
2013-02-04 03:45:00,13.5,-13.7,29.84,WSW,247,1.3,0.0,28,0.00,CLR,,0.00,WeatherDisplay:10.37,2013-02-04 08:45:00,
2013-02-04 03:50:00,13.3,-13.8,29.84,WSW,247,1.3,0.0,28,0.00,CLR,,0.00,WeatherDisplay:10.37,2013-02-04 08:50:00,
2013-02-04 03:55:00,13.1,-14.0,29.83,WSW,247,1.3,0.0,28,0.00,CLR,,0.00,WeatherDisplay:10.37,2013-02-04 08:55:00,
2013-02-04 04:00:00,12.7,-14.3,29.83,WSW,247,1.3,1.3,28,0.00,CLR,,0.00,WeatherDisplay:10.37,2013-02-04 09:00:00,
2013-02-04 04:05:00,12.6,-14.4,29.82,WSW,247,0.3,0.3,28,0.00,CLR,,0.00,WeatherDisplay:10.37,2013-02-04 09:05:00,
2013-02-04 04:10:00,12.4,-14.6,29.82,WSW,247,1.3,1.3,28,0.00,CLR,,0.00,WeatherDisplay:10.37,2013-02-04 09:10:00,
2013-02-04 04:15:00,12.2,-14.8,29.82,SW,225,1.3,1.3,28,0.00,CLR,,0.00,WeatherDisplay:10.37,2013-02-04 09:15:00,
2013-02-04 04:20:00,12.0,-14.9,29.83,SW,225,1.7,1.7,28,0.00,CLR,,0.00,WeatherDisplay:10.37,2013-02-04 09:20:00,
2013-02-04 04:25:00,11.8,-15.1,29.84,SW,225,1.7,1.7,28,0.00,CLR,,0.00,WeatherDisplay:10.37,2013-02-04 09:25:00,
2013-02-04 04:30:00,15.3,-12.1,29.84,WSW,247,1.7,1.7,28,0.00,CLR,,0.00,WeatherDisplay:10.37,2013-02-04 09:30:00,
2013-02-04 04:35:00,15.1,-12.2,29.83,WSW,247,2.8,2.8,28,0.00,CLR,,0.00,WeatherDisplay:10.37,2013-02-04 09:35:00,
2013-02-04 04:40:00,14.9,-12.4,29.82,WSW,247,2.8,2.8,28,0.00,CLR,,0.00,WeatherDisplay:10.37,2013-02-04 09:40:00,
2013-02-04 04:45:00,14.7,-12.6,29.82,SW,225,2.8,0.0,28,0.00,CLR,,0.00,WeatherDisplay:10.37,2013-02-04 09:45:00,
2013-02-04 04:50:00,14.7,-12.6,29.81,SW,225,2.8,2.8,28,0.00,CLR,,0.00,WeatherDisplay:10.37,2013-02-04 09:50:00,
2013-02-04 04:55:00,14.7,-12.6,29.82,SW,225,2.8,2.8,28,0.00,CLR,,0.00,WeatherDisplay:10.37,2013-02-04 09:55:00,
2013-02-04 05:00:00,14.7,-12.6,29.82,SW,225,2.8,0.0,28,0.00,CLR,,0.00,WeatherDisplay:10.37,2013-02-04 10:00:00,
2013-02-04 05:05:00,14.2,-13.0,29.83,SW,225,2.8,0.0,28,0.00,CLR,,0.00,WeatherDisplay:10.37,2013-02-04 10:05:00,
2013-02-04 05:10:00,14.2,-13.0,29.83,SW,225,0.0,0.0,28,0.00,CLR,,0.00,WeatherDisplay:10.37,2013-02-04 10:10:00,
2013-02-04 05:15:00,14.0,-13.2,29.83,SW,225,0.0,0.0,28,0.00,CLR,,0.00,WeatherDisplay:10.37,2013-02-04 10:15:00,
2013-02-04 05:20:00,14.0,-13.2,29.82,SW,225,0.0,0.0,28,0.00,CLR,,0.00,WeatherDisplay:10.37,2013-02-04 10:20:00,
2013-02-04 05:25:00,14.0,-13.2,29.81,SW,225,1.1,1.1,28,0.00,CLR,,0.00,WeatherDisplay:10.37,2013-02-04 10:25:00,
2013-02-04 05:30:00,14.0,-13.2,29.81,SW,225,1.1,0.0,28,0.00,CLR,,0.00,WeatherDisplay:10.37,2013-02-04 10:30:00,
2013-02-04 05:35:00,13.8,-13.3,29.81,SW,225,1.1,1.1,28,0.00,CLR,,0.00,WeatherDisplay:10.37,2013-02-04 10:35:00,
2013-02-04 05:40:00,13.8,-13.3,29.82,South,180,1.1,0.0,28,0.00,CLR,,0.00,WeatherDisplay:10.37,2013-02-04 10:40:00,
2013-02-04 05:45:00,13.8,-13.3,29.82,South,180,1.1,0.0,28,0.00,CLR,,0.00,WeatherDisplay:10.37,2013-02-04 10:45:00,
2013-02-04 05:50:00,13.8,-13.3,29.83,South,180,1.1,0.0,28,0.00,CLR,,0.00,WeatherDisplay:10.37,2013-02-04 10:50:00,
2013-02-04 05:55:00,13.6,-13.5,29.81,South,180,1.1,1.1,28,0.00,CLR,,0.00,WeatherDisplay:10.37,2013-02-04 10:55:00,
2013-02-04 06:00:00,17.1,-10.5,29.80,South,180,1.1,0.0,28,0.00,CLR,,0.00,WeatherDisplay:10.37,2013-02-04 11:00:00,
2013-02-04 06:05:00,17.1,-10.5,29.79,South,180,1.1,0.0,28,0.00,CLR,,0.00,WeatherDisplay:10.37,2013-02-04 11:05:00,
2013-02-04 06:10:00,17.1,-10.5,29.79,South,180,0.0,0.0,28,0.00,CLR,,0.00,WeatherDisplay:10.37,2013-02-04 11:10:00,
2013-02-04 06:15:00,17.1,-10.5,29.79,South,180,2.6,2.6,28,0.00,CLR,,0.00,WeatherDisplay:10.37,2013-02-04 11:15:00,
2013-02-04 06:20:00,16.9,-10.7,29.80,SSW,202,2.6,0.0,28,0.00,CLR,,0.00,WeatherDisplay:10.37,2013-02-04 11:20:00,
2013-02-04 06:25:00,16.7,-10.8,29.81,SSW,202,2.6,2.6,28,0.00,CLR,,0.00,WeatherDisplay:10.37,2013-02-04 11:25:00,
2013-02-04 06:30:00,16.7,-10.8,29.82,SW,225,2.6,0.0,28,0.00,CLR,,0.00,WeatherDisplay:10.37,2013-02-04 11:30:00,
2013-02-04 06:35:00,16.7,-10.8,29.82,SW,225,2.6,0.0,28,0.00,CLR,,0.00,WeatherDisplay:10.37,2013-02-04 11:35:00,
2013-02-04 06:40:00,16.7,-10.8,29.81,SW,225,2.6,0.0,28,0.00,CLR,,0.00,WeatherDisplay:10.37,2013-02-04 11:40:00,
2013-02-04 06:45:00,16.5,-11.0,29.79,SSE,157,2.6,0.0,28,0.00,CLR,,0.00,WeatherDisplay:10.37,2013-02-04 11:45:00,
2013-02-04 06:50:00,16.3,-11.1,29.78,SSE,157,2.6,2.6,28,0.00,CLR,,0.00,WeatherDisplay:10.37,2013-02-04 11:50:00,
2013-02-04 06:55:00,16.3,-11.1,29.79,SSE,157,2.6,0.0,28,0.00,CLR,,0.00,WeatherDisplay:10.37,2013-02-04 11:55:00,
2013-02-04 07:00:00,16.3,-11.1,29.80,SSE,157,2.6,2.6,28,0.00,CLR,,0.00,WeatherDisplay:10.37,2013-02-04 12:00:00,
2013-02-04 07:05:00,16.3,-11.1,29.81,SSE,157,0.3,0.3,28,0.00,CLR,,0.00,WeatherDisplay:10.37,2013-02-04 12:05:00,
2013-02-04 07:10:00,16.2,-11.3,29.82,SSE,157,0.3,0.0,28,0.00,CLR,,0.00,WeatherDisplay:10.37,2013-02-04 12:10:00,
2013-02-04 07:15:00,16.0,-11.5,29.82,SSE,157,1.1,1.1,28,0.00,CLR,,0.00,WeatherDisplay:10.37,2013-02-04 12:15:00,
2013-02-04 07:20:00,16.2,-11.3,29.81,SW,225,1.1,0.0,28,0.00,CLR,,0.00,WeatherDisplay:10.37,2013-02-04 12:20:00,
2013-02-04 07:25:00,16.2,-11.3,29.80,SW,225,1.1,1.1,28,0.00,CLR,,0.00,WeatherDisplay:10.37,2013-02-04 12:25:00,
2013-02-04 07:30:00,16.2,-11.3,29.80,WSW,247,2.3,2.3,28,0.00,CLR,,0.00,WeatherDisplay:10.37,2013-02-04 12:30:00,
2013-02-04 07:35:00,16.0,-11.5,29.79,WSW,247,2.8,2.8,28,0.00,CLR,,0.00,WeatherDisplay:10.37,2013-02-04 12:35:00,
2013-02-04 07:40:00,16.2,-11.3,29.79,SSW,202,3.6,3.6,28,0.00,CLR,,0.00,WeatherDisplay:10.37,2013-02-04 12:40:00,
2013-02-04 07:46:00,16.2,-11.3,29.80,WSW,247,3.6,3.6,28,0.00,CLR,,0.00,WeatherDisplay:10.37,2013-02-04 12:46:00,
2013-02-04 07:51:00,16.2,-11.3,29.81,SSW,202,3.6,3.6,28,0.00,CLR,,0.00,WeatherDisplay:10.37,2013-02-04 12:51:00,
2013-02-04 07:56:00,16.2,-11.3,29.81,WSW,247,3.6,3.6,28,0.00,CLR,,0.00,WeatherDisplay:10.37,2013-02-04 12:56:00,
2013-02-04 08:01:00,16.2,-11.3,29.81,SW,225,3.6,3.6,28,0.00,CLR,,0.00,WeatherDisplay:10.37,2013-02-04 13:01:00,
2013-02-04 08:06:00,16.0,-11.5,29.80,SSW,202,1.1,1.1,28,0.00,CLR,,0.00,WeatherDisplay:10.37,2013-02-04 13:06:00,
2013-02-04 08:11:00,16.2,-11.3,29.79,WSW,247,3.5,3.5,28,0.00,CLR,,0.00,WeatherDisplay:10.37,2013-02-04 13:11:00,
2013-02-04 08:16:00,16.0,-11.5,29.79,SW,225,3.5,3.5,28,0.00,CLR,,0.00,WeatherDisplay:10.37,2013-02-04 13:16:00,
2013-02-04 08:21:00,16.0,-11.5,29.79,West,270,3.5,3.5,28,0.00,CLR,,0.00,WeatherDisplay:10.37,2013-02-04 13:21:00,
2013-02-04 08:26:00,16.0,-11.5,29.81,WSW,247,3.5,3.5,28,0.00,CLR,,0.00,WeatherDisplay:10.37,2013-02-04 13:26:00,
2013-02-04 08:31:00,16.0,-11.5,29.82,WSW,247,3.5,3.5,28,0.00,CLR,,0.00,WeatherDisplay:10.37,2013-02-04 13:31:00,
2013-02-04 08:36:00,15.6,-11.8,29.83,SW,225,3.5,3.5,28,0.00,CLR,,0.00,WeatherDisplay:10.37,2013-02-04 13:36:00,
2013-02-04 08:41:00,15.4,-11.9,29.82,SSW,202,3.5,0.0,28,0.00,CLR,,0.00,WeatherDisplay:10.37,2013-02-04 13:41:00,
2013-02-04 08:46:00,18.7,-9.1,29.83,West,270,3.5,3.5,28,0.00,CLR,,0.00,WeatherDisplay:10.37,2013-02-04 13:46:00,
2013-02-04 08:51:00,18.7,-9.1,29.82,West,270,3.5,0.0,28,0.00,CLR,,0.00,WeatherDisplay:10.37,2013-02-04 13:51:00,
2013-02-04 08:56:00,18.5,-9.3,29.81,WSW,247,3.5,3.5,28,0.00,CLR,,0.00,WeatherDisplay:10.37,2013-02-04 13:56:00,
2013-02-04 09:01:00,18.3,-9.4,29.82,SSE,157,3.5,3.5,28,0.00,CLR,,0.00,WeatherDisplay:10.37,2013-02-04 14:01:00,
2013-02-04 09:06:00,18.3,-9.4,29.82,WSW,247,1.3,1.3,28,0.00,CLR,,0.00,WeatherDisplay:10.37,2013-02-04 14:06:00,
2013-02-04 09:11:00,18.1,-9.6,29.83,South,180,1.7,1.7,28,0.00,CLR,,0.00,WeatherDisplay:10.37,2013-02-04 14:11:00,
2013-02-04 09:16:00,18.0,-9.7,29.84,SW,225,1.7,1.7,28,0.00,CLR,,0.00,WeatherDisplay:10.37,2013-02-04 14:16:00,
2013-02-04 09:21:00,17.8,-9.9,29.84,SW,225,1.7,1.7,28,0.00,CLR,,0.00,WeatherDisplay:10.37,2013-02-04 14:21:00,
2013-02-04 09:26:00,17.8,-9.9,29.83,WSW,247,3.5,3.5,28,0.00,CLR,,0.00,WeatherDisplay:10.37,2013-02-04 14:26:00,
2013-02-04 09:31:00,17.6,-10.0,29.83,SSE,157,3.5,3.5,28,0.00,CLR,,0.00,WeatherDisplay:10.37,2013-02-04 14:31:00,
2013-02-04 09:36:00,20.5,-7.5,29.84,SSW,202,3.5,3.5,28,0.00,CLR,,0.00,WeatherDisplay:10.37,2013-02-04 14:36:00,
2013-02-04 09:41:00,20.3,-7.7,29.84,West,270,3.5,3.5,28,0.00,CLR,,0.00,WeatherDisplay:10.37,2013-02-04 14:41:00,
2013-02-04 09:46:00,20.1,-7.8,29.84,WSW,247,3.5,3.5,28,0.00,CLR,,0.00,WeatherDisplay:10.37,2013-02-04 14:46:00,
2013-02-04 09:51:00,19.9,-8.0,29.85,WSW,247,3.5,3.5,28,0.00,CLR,,0.00,WeatherDisplay:10.37,2013-02-04 14:51:00,
2013-02-04 09:56:00,19.8,-8.2,29.85,SW,225,3.5,3.5,28,0.00,CLR,,0.00,WeatherDisplay:10.37,2013-02-04 14:56:00,
2013-02-04 10:01:00,19.6,-8.3,29.85,WSW,247,3.5,3.5,28,0.00,CLR,,0.00,WeatherDisplay:10.37,2013-02-04 15:01:00,
2013-02-04 10:06:00,19.4,-8.5,29.86,SSE,157,3.5,3.5,28,0.00,CLR,,0.00,WeatherDisplay:10.37,2013-02-04 15:06:00,
2013-02-04 10:11:00,21.9,-6.3,29.81,South,180,2.8,2.8,28,0.00,CLR,,0.00,WeatherDisplay:10.37,2013-02-04 15:11:00,
2013-02-04 10:16:00,21.7,-6.4,29.86,WSW,247,2.8,0.0,28,0.00,CLR,,0.00,WeatherDisplay:10.37,2013-02-04 15:16:00,
2013-02-04 10:21:00,21.7,-6.4,29.85,SW,225,2.8,2.8,28,0.00,CLR,,0.00,WeatherDisplay:10.37,2013-02-04 15:21:00,
2013-02-04 10:26:00,22.1,-6.1,29.85,WNW,292,2.8,2.8,28,0.00,CLR,,0.00,WeatherDisplay:10.37,2013-02-04 15:26:00,
2013-02-04 10:31:00,22.3,-6.0,29.85,SW,225,3.5,3.5,28,0.00,CLR,,0.00,WeatherDisplay:10.37,2013-02-04 15:31:00,
2013-02-04 10:36:00,19.0,-8.8,29.85,WSW,247,3.5,3.5,28,0.00,CLR,,0.00,WeatherDisplay:10.37,2013-02-04 15:36:00,
2013-02-04 10:41:00,19.0,-8.8,29.80,West,270,3.5,0.0,28,0.00,CLR,,0.00,WeatherDisplay:10.37,2013-02-04 15:41:00,
2013-02-04 10:46:00,22.3,-6.0,29.80,West,270,3.5,3.5,28,0.00,CLR,,0.00,WeatherDisplay:10.37,2013-02-04 15:46:00,
2013-02-04 10:51:00,21.9,-6.3,29.81,WNW,292,3.5,3.5,28,0.00,CLR,,0.00,WeatherDisplay:10.37,2013-02-04 15:51:00,
2013-02-04 10:56:00,21.7,-6.4,29.81,North,0,3.5,3.5,28,0.00,CLR,,0.00,WeatherDisplay:10.37,2013-02-04 15:56:00,
2013-02-04 11:01:00,21.7,-6.4,29.80,WSW,247,3.5,3.5,28,0.00,CLR,,0.00,WeatherDisplay:10.37,2013-02-04 16:01:00,
2013-02-04 11:06:00,21.0,-7.1,29.85,South,180,3.5,3.5,28,0.00,CLR,,0.00,WeatherDisplay:10.37,2013-02-04 16:06:00,
2013-02-04 11:11:00,23.4,-5.0,29.84,South,180,2.3,2.3,28,0.00,CLR,,0.00,WeatherDisplay:10.37,2013-02-04 16:11:00,
2013-02-04 11:16:00,23.4,-5.0,29.83,SSE,157,2.3,2.3,28,0.00,CLR,,0.00,WeatherDisplay:10.37,2013-02-04 16:16:00,
2013-02-04 11:21:00,23.2,-5.2,29.83,SSW,202,2.3,0.0,28,0.00,CLR,,0.00,WeatherDisplay:10.37,2013-02-04 16:21:00,
2013-02-04 11:26:00,23.2,-5.2,29.82,SW,225,2.6,2.6,28,0.00,CLR,,0.00,WeatherDisplay:10.37,2013-02-04 16:26:00,
2013-02-04 11:31:00,23.2,-5.2,29.83,SSW,202,2.6,2.6,28,0.00,CLR,,0.00,WeatherDisplay:10.37,2013-02-04 16:31:00,
2013-02-04 11:36:00,23.5,-4.9,29.84,SSW,202,2.6,2.6,28,0.00,CLR,,0.00,WeatherDisplay:10.37,2013-02-04 16:36:00,
2013-02-04 11:41:00,23.5,-4.9,29.84,South,180,2.6,2.6,28,0.00,CLR,,0.00,WeatherDisplay:10.37,2013-02-04 16:41:00,
2013-02-04 11:46:00,23.5,-4.9,29.84,SSE,157,2.6,2.6,28,0.00,CLR,,0.00,WeatherDisplay:10.37,2013-02-04 16:46:00,
2013-02-04 11:51:00,22.6,-5.6,29.77,ESE,112,3.8,3.8,28,0.00,CLR,,0.00,WeatherDisplay:10.37,2013-02-04 16:51:00,
2013-02-04 11:56:00,22.6,-5.6,29.77,ESE,112,3.8,3.8,28,0.00,CLR,,0.00,WeatherDisplay:10.37,2013-02-04 16:56:00,
2013-02-04 12:01:00,26.1,-2.7,29.78,South,180,3.8,3.8,28,0.00,CLR,,0.00,WeatherDisplay:10.37,2013-02-04 17:01:00,
2013-02-04 12:06:00,25.7,-3.0,29.77,SSW,202,3.8,3.8,28,0.00,CLR,,0.00,WeatherDisplay:10.37,2013-02-04 17:06:00,
2013-02-04 12:11:00,25.3,-3.3,29.77,SSE,157,1.7,1.7,28,0.00,CLR,,0.00,WeatherDisplay:10.37,2013-02-04 17:11:00,
2013-02-04 12:16:00,25.2,-3.4,29.83,SSE,157,2.6,2.6,28,0.00,CLR,,0.00,WeatherDisplay:10.37,2013-02-04 17:16:00,
2013-02-04 12:21:00,25.5,-3.1,29.81,East,90,2.6,2.6,28,0.00,CLR,,0.00,WeatherDisplay:10.37,2013-02-04 17:21:00,
2013-02-04 12:26:00,25.9,-2.8,29.80,East,90,2.6,2.6,28,0.00,CLR,,0.00,WeatherDisplay:10.37,2013-02-04 17:26:00,
2013-02-04 12:31:00,25.9,-2.8,29.79,ESE,112,2.6,2.6,28,0.00,CLR,,0.00,WeatherDisplay:10.37,2013-02-04 17:31:00,
2013-02-04 12:36:00,25.5,-3.1,29.80,South,180,2.6,2.6,28,0.00,CLR,,0.00,WeatherDisplay:10.37,2013-02-04 17:36:00,
2013-02-04 12:41:00,25.2,-3.4,29.79,South,180,2.6,2.6,28,0.00,CLR,,0.00,WeatherDisplay:10.37,2013-02-04 17:41:00,
2013-02-04 12:46:00,25.0,-3.6,29.78,ESE,112,2.6,2.6,28,0.00,CLR,,0.00,WeatherDisplay:10.37,2013-02-04 17:46:00,
2013-02-04 12:51:00,24.8,-3.8,29.77,SSE,157,2.8,2.8,28,0.00,CLR,,0.00,WeatherDisplay:10.37,2013-02-04 17:51:00,
2013-02-04 12:56:00,26.2,-2.5,29.78,ESE,112,2.8,2.8,28,0.00,CLR,,0.00,WeatherDisplay:10.37,2013-02-04 17:56:00,
2013-02-04 13:01:00,26.4,-2.3,29.78,SE,135,2.8,2.8,28,0.00,CLR,,0.00,WeatherDisplay:10.37,2013-02-04 18:01:00,
2013-02-04 13:06:00,27.0,-1.9,29.79,ESE,112,3.5,3.5,28,0.00,CLR,,0.00,WeatherDisplay:10.37,2013-02-04 18:06:00,
2013-02-04 13:11:00,27.0,-1.9,29.80,East,90,3.5,3.5,28,0.00,CLR,,0.00,WeatherDisplay:10.37,2013-02-04 18:11:00,
2013-02-04 13:16:00,26.2,-2.5,29.78,SW,225,3.5,3.5,28,0.00,CLR,,0.00,WeatherDisplay:10.37,2013-02-04 18:16:00,
2013-02-04 13:21:00,26.2,-2.5,29.77,ESE,112,3.5,3.5,28,0.00,CLR,,0.00,WeatherDisplay:10.37,2013-02-04 18:21:00,
2013-02-04 13:26:00,26.6,-2.2,29.76,SSW,202,3.5,3.5,28,0.00,CLR,,0.00,WeatherDisplay:10.37,2013-02-04 18:26:00,
2013-02-04 13:31:00,26.6,-2.2,29.76,SSE,157,3.5,3.5,28,0.00,CLR,,0.00,WeatherDisplay:10.37,2013-02-04 18:31:00,
2013-02-04 13:36:00,26.4,-2.3,29.76,SE,135,3.5,3.5,28,0.00,CLR,,0.00,WeatherDisplay:10.37,2013-02-04 18:36:00,
2013-02-04 13:41:00,24.6,-3.9,29.77,SE,135,3.5,3.5,28,0.00,CLR,,0.00,WeatherDisplay:10.37,2013-02-04 18:41:00,
2013-02-04 13:46:00,25.3,-3.3,29.76,NW,315,3.5,0.0,28,0.00,CLR,,0.00,WeatherDisplay:10.37,2013-02-04 18:46:00,
2013-02-04 13:51:00,22.8,-5.5,29.76,NNW,337,3.5,0.0,28,0.00,CLR,,0.00,WeatherDisplay:10.37,2013-02-04 18:51:00,
2013-02-04 13:56:00,22.6,-5.6,29.76,SSE,157,3.5,3.5,28,0.00,CLR,,0.00,WeatherDisplay:10.37,2013-02-04 18:56:00,
2013-02-04 14:01:00,25.2,-3.4,29.76,SSE,157,3.5,3.5,28,0.00,CLR,,0.00,WeatherDisplay:10.37,2013-02-04 19:01:00,
2013-02-04 14:06:00,26.6,-2.2,29.75,South,180,3.5,3.5,28,0.00,CLR,,0.00,WeatherDisplay:10.37,2013-02-04 19:06:00,
2013-02-04 14:11:00,27.0,-1.9,29.75,SE,135,3.5,3.5,28,0.00,CLR,,0.00,WeatherDisplay:10.37,2013-02-04 19:11:00,
2013-02-04 14:16:00,27.0,-1.9,29.75,SE,135,3.5,3.5,28,0.00,CLR,,0.00,WeatherDisplay:10.37,2013-02-04 19:16:00,
2013-02-04 14:21:00,27.3,-1.6,29.75,SE,135,3.5,3.5,28,0.00,CLR,,0.00,WeatherDisplay:10.37,2013-02-04 19:21:00,
2013-02-04 14:26:00,27.3,-1.6,29.75,SSE,157,3.5,3.5,28,0.00,CLR,,0.00,WeatherDisplay:10.37,2013-02-04 19:26:00,
2013-02-04 14:31:00,27.1,-1.7,29.75,ESE,112,3.5,3.5,28,0.00,CLR,,0.00,WeatherDisplay:10.37,2013-02-04 19:31:00,
2013-02-04 14:36:00,27.3,-1.6,29.75,ESE,112,3.5,3.5,28,0.00,CLR,,0.00,WeatherDisplay:10.37,2013-02-04 19:36:00,
2013-02-04 14:41:00,27.5,-1.4,29.74,ESE,112,3.5,3.5,28,0.00,CLR,,0.00,WeatherDisplay:10.37,2013-02-04 19:41:00,
2013-02-04 14:46:00,27.5,-1.4,29.73,ESE,112,3.5,3.5,28,0.00,CLR,,0.00,WeatherDisplay:10.37,2013-02-04 19:46:00,
2013-02-04 14:51:00,27.1,-1.7,29.73,SE,135,3.5,3.5,28,0.00,CLR,,0.00,WeatherDisplay:10.37,2013-02-04 19:51:00,
2013-02-04 14:56:00,27.1,-1.7,29.72,SSE,157,3.5,3.5,28,0.00,CLR,,0.00,WeatherDisplay:10.37,2013-02-04 19:56:00,
2013-02-04 15:01:00,27.7,-1.2,29.73,SE,135,3.5,3.5,28,0.00,CLR,,0.00,WeatherDisplay:10.37,2013-02-04 20:01:00,
2013-02-04 15:06:00,27.7,-1.2,29.73,SSE,157,3.5,3.5,28,0.00,CLR,,0.00,WeatherDisplay:10.37,2013-02-04 20:06:00,
2013-02-04 15:11:00,28.0,-0.9,29.73,SSE,157,2.6,2.6,28,0.00,CLR,,0.00,WeatherDisplay:10.37,2013-02-04 20:11:00,
2013-02-04 15:16:00,27.7,-1.2,29.74,SE,135,2.6,2.6,28,0.00,CLR,,0.00,WeatherDisplay:10.37,2013-02-04 20:16:00,
2013-02-04 15:21:00,27.3,-1.6,29.73,SE,135,2.6,2.6,28,0.00,CLR,,0.00,WeatherDisplay:10.37,2013-02-04 20:21:00,
2013-02-04 15:26:00,26.2,-2.5,29.71,NE,45,2.6,0.0,28,0.00,CLR,,0.00,WeatherDisplay:10.37,2013-02-04 20:26:00,
2013-02-04 15:31:00,26.2,-2.5,29.71,South,180,2.6,0.0,28,0.00,CLR,,0.00,WeatherDisplay:10.37,2013-02-04 20:31:00,
2013-02-04 15:36:00,26.4,-2.3,29.71,WSW,247,2.6,2.6,28,0.00,CLR,,0.00,WeatherDisplay:10.37,2013-02-04 20:36:00,
2013-02-04 15:41:00,25.2,-3.4,29.72,East,90,2.6,0.0,28,0.00,CLR,,0.00,WeatherDisplay:10.37,2013-02-04 20:41:00,
2013-02-04 15:46:00,25.2,-3.4,29.72,ESE,112,2.6,2.6,28,0.00,CLR,,0.00,WeatherDisplay:10.37,2013-02-04 20:46:00,
2013-02-04 15:51:00,25.0,-3.6,29.73,SE,135,2.6,0.0,28,0.00,CLR,,0.00,WeatherDisplay:10.37,2013-02-04 20:51:00,
2013-02-04 15:56:00,25.0,-3.6,29.72,SE,135,2.6,0.0,28,0.00,CLR,,0.00,WeatherDisplay:10.37,2013-02-04 20:56:00,
2013-02-04 16:01:00,25.9,-2.8,29.72,NW,315,2.6,0.0,28,0.00,CLR,,0.00,WeatherDisplay:10.37,2013-02-04 21:01:00,
2013-02-04 16:06:00,22.8,-5.5,29.77,NW,315,2.4,2.4,28,0.00,CLR,,0.00,WeatherDisplay:10.37,2013-02-04 21:06:00,
2013-02-04 16:11:00,23.0,-5.3,29.76,South,180,2.4,0.0,28,0.00,CLR,,0.00,WeatherDisplay:10.37,2013-02-04 21:11:00,
2013-02-04 16:16:00,22.6,-5.6,29.70,East,90,2.4,2.4,28,0.00,CLR,,0.00,WeatherDisplay:10.37,2013-02-04 21:16:00,
2013-02-04 16:21:00,22.6,-5.6,29.71,NE,45,2.4,2.4,28,0.00,CLR,,0.00,WeatherDisplay:10.37,2013-02-04 21:21:00,
2013-02-04 16:26:00,22.8,-5.5,29.72,NE,45,2.6,2.6,28,0.00,CLR,,0.00,WeatherDisplay:10.37,2013-02-04 21:26:00,
2013-02-04 16:31:00,23.0,-5.3,29.71,SE,135,2.6,2.6,28,0.00,CLR,,0.00,WeatherDisplay:10.37,2013-02-04 21:31:00,
2013-02-04 16:36:00,22.8,-5.5,29.71,SSE,157,2.6,0.0,28,0.00,CLR,,0.00,WeatherDisplay:10.37,2013-02-04 21:36:00,
2013-02-04 16:41:00,23.0,-5.3,29.76,NE,45,3.5,3.5,28,0.00,CLR,,0.00,WeatherDisplay:10.37,2013-02-04 21:41:00,
2013-02-04 16:46:00,23.5,-4.9,29.75,ESE,112,3.5,3.5,28,0.00,CLR,,0.00,WeatherDisplay:10.37,2013-02-04 21:46:00,
2013-02-04 16:51:00,23.7,-4.7,29.75,NE,45,3.5,3.5,28,0.00,CLR,,0.00,WeatherDisplay:10.37,2013-02-04 21:51:00,
2013-02-04 16:56:00,23.7,-4.7,29.70,ENE,67,3.5,0.0,28,0.00,CLR,,0.00,WeatherDisplay:10.37,2013-02-04 21:56:00,
2013-02-04 17:01:00,24.1,-4.4,29.70,ENE,67,3.5,3.5,28,0.00,CLR,,0.00,WeatherDisplay:10.37,2013-02-04 22:01:00,
2013-02-04 17:06:00,24.1,-4.4,29.71,SSE,157,1.1,0.0,28,0.00,CLR,,0.00,WeatherDisplay:10.37,2013-02-04 22:06:00,
2013-02-04 17:11:00,23.9,-4.5,29.71,ESE,112,1.1,0.0,28,0.00,CLR,,0.00,WeatherDisplay:10.37,2013-02-04 22:11:00,
2013-02-04 17:16:00,23.9,-4.5,29.70,ESE,112,1.7,1.7,28,0.00,CLR,,0.00,WeatherDisplay:10.37,2013-02-04 22:16:00,
2013-02-04 17:21:00,23.7,-4.7,29.69,SSE,157,1.7,1.7,28,0.00,CLR,,0.00,WeatherDisplay:10.37,2013-02-04 22:21:00,
2013-02-04 17:26:00,24.1,-4.4,29.74,East,90,1.7,1.7,28,0.00,CLR,,0.00,WeatherDisplay:10.37,2013-02-04 22:26:00,
2013-02-04 17:31:00,20.8,-7.2,29.75,ESE,112,2.6,2.6,28,0.00,CLR,,0.00,WeatherDisplay:10.37,2013-02-04 22:31:00,
2013-02-04 17:36:00,21.2,-6.9,29.69,NNE,22,2.6,2.6,28,0.00,CLR,,0.00,WeatherDisplay:10.37,2013-02-04 22:36:00,
2013-02-04 17:41:00,21.9,-6.3,29.70,NE,45,2.8,0.0,28,0.00,CLR,,0.00,WeatherDisplay:10.37,2013-02-04 22:41:00,
2013-02-04 17:46:00,21.9,-6.3,29.70,ENE,67,2.8,0.0,28,0.00,CLR,,0.00,WeatherDisplay:10.37,2013-02-04 22:46:00,
2013-02-04 17:51:00,22.1,-6.1,29.70,ENE,67,2.8,2.8,28,0.00,CLR,,0.00,WeatherDisplay:10.37,2013-02-04 22:51:00,
2013-02-04 17:56:00,22.3,-6.0,29.70,NE,45,2.8,2.8,28,0.00,CLR,,0.00,WeatherDisplay:10.37,2013-02-04 22:56:00,
2013-02-04 18:01:00,19.0,-8.8,29.75,East,90,2.8,2.8,28,0.00,CLR,,0.00,WeatherDisplay:10.37,2013-02-04 23:01:00,
2013-02-04 18:06:00,19.0,-8.8,29.74,ENE,67,2.4,2.4,28,0.00,CLR,,0.00,WeatherDisplay:10.37,2013-02-04 23:06:00,
2013-02-04 18:11:00,19.0,-8.8,29.75,East,90,2.4,2.4,28,0.00,CLR,,0.00,WeatherDisplay:10.37,2013-02-04 23:11:00,
2013-02-04 18:16:00,19.2,-8.6,29.69,NE,45,2.4,2.4,28,0.00,CLR,,0.00,WeatherDisplay:10.37,2013-02-04 23:16:00,
2013-02-04 18:21:00,19.4,-8.5,29.69,NE,45,3.5,3.5,28,0.00,CLR,,0.00,WeatherDisplay:10.37,2013-02-04 23:21:00,
2013-02-04 18:26:00,19.6,-8.3,29.70,NE,45,3.5,3.5,28,0.00,CLR,,0.00,WeatherDisplay:10.37,2013-02-04 23:26:00,
2013-02-04 18:31:00,19.4,-8.5,29.71,East,90,3.5,3.5,28,0.00,CLR,,0.00,WeatherDisplay:10.37,2013-02-04 23:31:00,
2013-02-04 18:36:00,19.4,-8.5,29.76,NE,45,3.5,3.5,28,0.00,CLR,,0.00,WeatherDisplay:10.37,2013-02-04 23:36:00,
2013-02-04 18:41:00,19.6,-8.3,29.75,NNE,22,3.5,3.5,28,0.00,CLR,,0.00,WeatherDisplay:10.37,2013-02-04 23:41:00,
2013-02-04 18:46:00,19.6,-8.3,29.75,NE,45,3.5,3.5,28,0.00,CLR,,0.00,WeatherDisplay:10.37,2013-02-04 23:46:00,
2013-02-04 18:51:00,20.3,-7.7,29.76,North,0,4.0,4.0,28,0.00,CLR,,0.00,WeatherDisplay:10.37,2013-02-04 23:51:00,
2013-02-04 18:56:00,20.5,-7.5,29.76,North,0,4.0,4.0,28,0.00,CLR,,0.00,WeatherDisplay:10.37,2013-02-04 23:56:00,
2013-02-04 19:01:00,17.2,-10.4,29.76,NNW,337,4.0,4.0,28,0.00,CLR,,0.00,WeatherDisplay:10.37,2013-02-05 00:01:00,
2013-02-04 19:06:00,17.4,-10.2,29.71,North,0,2.3,2.3,28,0.00,CLR,,0.00,WeatherDisplay:10.37,2013-02-05 00:06:00,
2013-02-04 19:12:00,17.4,-10.2,29.76,NNW,337,4.0,4.0,28,0.00,CLR,,0.00,WeatherDisplay:10.37,2013-02-05 00:12:00,
2013-02-04 19:17:00,17.8,-9.9,29.75,North,0,4.0,4.0,28,0.00,CLR,,0.00,WeatherDisplay:10.37,2013-02-05 00:17:00,
2013-02-04 19:22:00,17.8,-9.9,29.75,NNW,337,4.0,4.0,28,0.00,CLR,,0.00,WeatherDisplay:10.37,2013-02-05 00:22:00,
2013-02-04 19:27:00,17.8,-9.9,29.74,NE,45,4.0,4.0,28,0.00,CLR,,0.00,WeatherDisplay:10.37,2013-02-05 00:27:00,
2013-02-04 19:32:00,17.8,-9.9,29.75,North,0,4.0,4.0,28,0.00,CLR,,0.00,WeatherDisplay:10.37,2013-02-05 00:32:00,
2013-02-04 19:37:00,17.8,-9.9,29.76,NE,45,4.0,4.0,28,0.00,CLR,,0.00,WeatherDisplay:10.37,2013-02-05 00:37:00,
2013-02-04 19:42:00,18.0,-9.7,29.76,NNW,337,4.0,4.0,28,0.00,CLR,,0.00,WeatherDisplay:10.37,2013-02-05 00:42:00,
2013-02-04 19:47:00,18.0,-9.7,29.76,North,0,4.0,4.0,28,0.00,CLR,,0.00,WeatherDisplay:10.37,2013-02-05 00:47:00,
2013-02-04 19:52:00,18.1,-9.6,29.77,North,0,4.0,4.0,28,0.00,CLR,,0.00,WeatherDisplay:10.37,2013-02-05 00:52:00,
2013-02-04 19:57:00,18.1,-9.6,29.76,NNW,337,4.0,4.0,28,0.00,CLR,,0.00,WeatherDisplay:10.37,2013-02-05 00:57:00,
2013-02-04 20:02:00,18.1,-9.6,29.75,NNW,337,4.0,4.0,28,0.00,CLR,,0.00,WeatherDisplay:10.37,2013-02-05 01:02:00,
2013-02-04 20:07:00,18.1,-9.6,29.76,North,0,2.6,2.6,28,0.00,CLR,,0.00,WeatherDisplay:10.37,2013-02-05 01:07:00,
2013-02-04 20:12:00,18.3,-9.4,29.76,North,0,2.6,2.6,28,0.00,CLR,,0.00,WeatherDisplay:10.37,2013-02-05 01:12:00,
2013-02-04 20:17:00,18.3,-9.4,29.77,NNW,337,2.6,2.6,28,0.00,CLR,,0.00,WeatherDisplay:10.37,2013-02-05 01:17:00,
2013-02-04 20:22:00,18.3,-9.4,29.78,NNW,337,3.5,3.5,28,0.00,CLR,,0.00,WeatherDisplay:10.37,2013-02-05 01:22:00,
2013-02-04 20:27:00,18.1,-9.6,29.78,North,0,3.5,3.5,28,0.00,CLR,,0.00,WeatherDisplay:10.37,2013-02-05 01:27:00,
2013-02-04 20:32:00,18.3,-9.4,29.78,North,0,3.5,3.5,28,0.00,CLR,,0.00,WeatherDisplay:10.37,2013-02-05 01:32:00,
2013-02-04 20:37:00,18.1,-9.6,29.77,NE,45,3.5,3.5,28,0.00,CLR,,0.00,WeatherDisplay:10.37,2013-02-05 01:37:00,
2013-02-04 20:42:00,18.3,-9.4,29.76,NE,45,3.5,3.5,28,0.00,CLR,,0.00,WeatherDisplay:10.37,2013-02-05 01:42:00,
2013-02-04 20:47:00,18.3,-9.4,29.76,North,0,3.5,3.5,28,0.00,CLR,,0.00,WeatherDisplay:10.37,2013-02-05 01:47:00,
2013-02-04 20:52:00,18.1,-9.6,29.78,NNE,22,3.5,4.5,28,0.00,CLR,,0.00,WeatherDisplay:10.37,2013-02-05 01:52:00,
2013-02-04 20:57:00,18.3,-9.4,29.78,NNE,22,4.6,4.6,28,0.00,CLR,,0.00,WeatherDisplay:10.37,2013-02-05 01:57:00,
2013-02-04 21:03:00,18.3,-9.4,29.79,NE,45,4.6,4.6,28,0.00,CLR,,0.00,WeatherDisplay:10.37,2013-02-05 02:03:00,
2013-02-04 21:08:00,18.3,-9.4,29.79,NNW,337,4.6,4.6,28,0.00,CLR,,0.00,WeatherDisplay:10.37,2013-02-05 02:08:00,
2013-02-04 21:13:00,18.3,-9.4,29.78,North,0,4.6,4.6,28,0.00,CLR,,0.00,WeatherDisplay:10.37,2013-02-05 02:13:00,
2013-02-04 21:18:00,18.1,-9.6,29.77,NE,45,4.6,4.6,28,0.00,CLR,,0.00,WeatherDisplay:10.37,2013-02-05 02:18:00,
2013-02-04 21:23:00,18.1,-9.6,29.77,NNE,22,4.6,4.6,28,0.00,CLR,,0.00,WeatherDisplay:10.37,2013-02-05 02:23:00,
2013-02-04 21:29:00,18.1,-9.6,29.78,ENE,67,4.6,4.6,28,0.00,CLR,,0.00,WeatherDisplay:10.37,2013-02-05 02:29:00,
2013-02-04 21:34:00,18.1,-9.6,29.78,NNE,22,4.6,4.6,28,0.00,CLR,,0.00,WeatherDisplay:10.37,2013-02-05 02:34:00,
2013-02-04 21:40:00,18.0,-9.7,29.79,ENE,59,1.0,5.0,28,0.00,CLR,CLR,0.00,WeatherDisplay:10.37,2013-02-05 02:40:00,
2013-02-04 21:45:00,18.0,-9.7,29.79,ENE,74,1.0,5.0,28,0.00,CLR,CLR,0.00,WeatherDisplay:10.37,2013-02-05 02:45:00,
2013-02-04 21:50:00,17.8,-9.9,29.78,East,85,0.0,5.0,28,0.00,CLR,CLR,0.00,WeatherDisplay:10.37,2013-02-05 02:50:00,
2013-02-04 21:55:00,17.6,-10.0,29.77,SE,125,0.0,5.0,28,0.00,CLR,CLR,0.00,WeatherDisplay:10.37,2013-02-05 02:55:00,
2013-02-04 22:00:00,17.4,-10.2,29.76,SE,125,1.0,5.0,28,0.00,CLR,CLR,0.00,WeatherDisplay:10.37,2013-02-05 03:00:00,
2013-02-04 22:05:00,17.2,-10.4,29.76,SE,135,1.1,1.1,28,0.00,CLR,,0.00,WeatherDisplay:10.37,2013-02-05 03:05:00,
2013-02-04 22:10:00,17.4,-10.2,29.76,SE,135,1.1,0.0,28,0.00,CLR,,0.00,WeatherDisplay:10.37,2013-02-05 03:10:00,
2013-02-04 22:15:00,17.4,-10.2,29.77,SE,135,1.1,0.0,28,0.00,CLR,,0.00,WeatherDisplay:10.37,2013-02-05 03:15:00,
2013-02-04 22:20:00,17.4,-10.2,29.77,East,90,1.1,0.0,28,0.00,CLR,,0.00,WeatherDisplay:10.37,2013-02-05 03:20:00,
2013-02-04 22:25:00,17.2,-10.4,29.78,SSE,157,1.1,0.0,28,0.00,CLR,,0.00,WeatherDisplay:10.37,2013-02-05 03:25:00,
2013-02-04 22:31:00,20.7,-7.4,29.77,SE,135,1.1,0.0,28,0.00,CLR,,0.00,WeatherDisplay:10.37,2013-02-05 03:31:00,
2013-02-04 22:36:00,17.2,-10.4,29.76,SSE,157,1.1,0.0,28,0.00,CLR,,0.00,WeatherDisplay:10.37,2013-02-05 03:36:00,
2013-02-04 22:41:00,17.4,-10.2,29.75,SE,135,1.1,1.1,28,0.00,CLR,,0.00,WeatherDisplay:10.37,2013-02-05 03:41:00,
2013-02-04 22:46:00,17.4,-10.2,29.76,SE,135,1.1,0.0,28,0.00,CLR,,0.00,WeatherDisplay:10.37,2013-02-05 03:46:00,
2013-02-04 22:51:00,20.7,-7.4,29.76,SE,135,1.1,0.0,28,0.00,CLR,,0.00,WeatherDisplay:10.37,2013-02-05 03:51:00,
2013-02-04 22:56:00,20.7,-7.4,29.76,South,180,1.1,0.0,28,0.00,CLR,,0.00,WeatherDisplay:10.37,2013-02-05 03:56:00,
2013-02-04 23:01:00,20.7,-7.4,29.75,South,180,1.1,0.0,28,0.00,CLR,,0.00,WeatherDisplay:10.37,2013-02-05 04:01:00,
2013-02-04 23:06:00,20.7,-7.4,29.75,ESE,112,1.3,0.0,28,0.00,CLR,,0.00,WeatherDisplay:10.37,2013-02-05 04:06:00,
2013-02-04 23:11:00,20.7,-7.4,29.74,ESE,112,1.3,0.0,28,0.00,CLR,,0.00,WeatherDisplay:10.37,2013-02-05 04:11:00,
2013-02-04 23:16:00,17.4,-10.2,29.75,SSW,202,1.3,0.0,28,0.00,CLR,,0.00,WeatherDisplay:10.37,2013-02-05 04:16:00,
2013-02-04 23:21:00,17.6,-10.0,29.76,SSW,202,1.3,0.0,28,0.00,CLR,,0.00,WeatherDisplay:10.37,2013-02-05 04:21:00,
2013-02-04 23:26:00,17.8,-9.9,29.76,SSW,202,1.3,0.0,28,0.00,CLR,,0.00,WeatherDisplay:10.37,2013-02-05 04:26:00,
2013-02-04 23:31:00,18.3,-9.4,29.75,SSW,202,1.3,0.0,28,0.00,CLR,,0.00,WeatherDisplay:10.37,2013-02-05 04:31:00,
2013-02-04 23:36:00,18.3,-9.4,29.76,SSW,202,1.3,0.0,28,0.00,CLR,,0.00,WeatherDisplay:10.37,2013-02-05 04:36:00,
2013-02-04 23:41:00,18.7,-9.1,29.76,SSW,202,1.3,0.0,28,0.00,CLR,,0.00,WeatherDisplay:10.37,2013-02-05 04:41:00,
2013-02-04 23:46:00,18.7,-9.1,29.74,SW,225,1.3,0.0,28,0.00,CLR,,0.00,WeatherDisplay:10.37,2013-02-05 04:46:00,
2013-02-04 23:51:00,15.4,-11.9,29.74,SSW,202,1.3,0.0,28,0.00,CLR,,0.00,WeatherDisplay:10.37,2013-02-05 04:51:00,
2013-02-04 23:56:00,15.6,-11.8,29.75,SSW,202,1.3,0.0,28,0.00,CLR,,0.00,WeatherDisplay:10.37,2013-02-05 04:56:00,